Time;durP1;ratioP1;P1;durP2;ratioP2;P2;SDS_P1;SDS_P2;PMS_P1;PMS_P2;Temp;Humidity;BMP_temperature;BMP_pressure;BME280_temperature;BME280_humidity;BME280_pressure;Samples;Min_cycle;Max_cycle;Signal;HPM_P1;HPM_P2
2020/12/08 00:00:12;;;;;;;;;37.60;31.80;;;;;8.58;46.90;98167.03;6178275;28;97478;-57
2020/12/08 00:03:13;;;;;;;;;41.00;33.00;;;;;8.58;47.21;98155.47;6162340;28;99077;-57
2020/12/08 00:06:14;;;;;;;;;40.60;33.00;;;;;8.69;47.00;98173.53;6179144;28;98570;-57
2020/12/08 00:09:16;;;;;;;;;38.50;32.00;;;;;8.54;47.01;98179.28;6165399;28;97233;-57
2020/12/08 00:12:22;;;;;;;;;37.50;32.00;;;;;8.53;47.22;98168.75;6178368;28;97476;-57
2020/12/08 00:15:23;;;;;;;;;39.50;32.00;;;;;8.51;47.05;98166.28;6162668;28;97396;-57
2020/12/08 00:18:25;;;;;;;;;32.00;29.40;;;;;7.58;47.18;98026.13;6168026;28;96655;-57
2020/12/08 00:21:26;;;;;;;;;35.60;31.20;;;;;8.49;47.14;98170.25;6161649;28;96468;-57
2020/12/08 00:24:28;;;;;;;;;39.60;33.00;;;;;8.47;47.13;98164.28;6170370;28;97105;-57
2020/12/08 00:27:29;;;;;;;;;34.00;31.00;;;;;8.48;47.00;98168.63;6159405;28;97527;-57
2020/12/08 00:30:31;;;;;;;;;39.50;33.50;;;;;8.53;47.13;98166.06;6170328;28;96982;-57
2020/12/08 00:33:33;;;;;;;;;35.25;31.00;;;;;8.51;47.00;98170.84;6163272;28;97382;-57
2020/12/08 00:36:34;;;;;;;;;37.00;32.00;;;;;8.37;47.04;98132.59;6163620;28;97130;-57
2020/12/08 00:39:36;;;;;;;;;36.25;32.00;;;;;8.62;46.79;98176.28;6160676;28;98032;-57
2020/12/08 00:42:40;;;;;;;;;34.00;31.00;;;;;8.51;46.69;98160.91;6178224;28;97460;-57
2020/12/08 00:45:46;;;;;;;;;39.67;32.67;;;;;8.58;47.09;98182.34;6159511;28;97402;-57
2020/12/08 00:48:48;;;;;;;;;36.00;30.00;;;;;8.59;46.78;98175.91;6177461;28;96762;-57
2020/12/08 00:51:59;;;;;;;;;36.00;30.20;;;;;8.68;46.79;98186.13;6174704;28;97235;-57
2020/12/08 00:55:05;;;;;;;;;38.50;32.00;;;;;8.66;47.13;98182.84;6170921;28;97399;-57
2020/12/08 00:58:07;;;;;;;;;36.00;31.00;;;;;8.58;46.95;98185.84;6180716;28;97370;-57
2020/12/08 01:01:09;;;;;;;;;38.50;31.75;;;;;8.64;46.90;98197.56;6169947;28;98069;-57
2020/12/08 01:04:10;;;;;;;;;35.00;32.00;;;;;8.49;47.18;98187.19;6168243;28;96893;-57
2020/12/08 01:07:13;;;;;;;;;36.25;32.00;;;;;8.52;47.34;98186.75;6174171;28;98505;-57
2020/12/08 01:10:14;;;;;;;;;36.75;32.00;;;;;8.54;47.01;98186.53;6176564;28;97278;-57
2020/12/08 01:13:17;;;;;;;;;36.50;31.25;;;;;8.60;47.04;98186.41;6172082;28;96754;-57
2020/12/08 01:16:23;;;;;;;;;37.67;31.00;;;;;8.65;46.77;98185.75;6182677;28;97275;-57
2020/12/08 01:19:25;;;;;;;;;34.25;30.75;;;;;8.62;46.84;98183.53;6172349;28;98219;-57
2020/12/08 01:22:26;;;;;;;;;36.40;31.40;;;;;8.69;46.58;98190.47;6167889;28;97926;-57
2020/12/08 01:25:28;;;;;;;;;30.20;28.80;;;;;8.65;46.63;98180.38;6170128;28;98460;-57
2020/12/08 01:28:30;;;;;;;;;36.00;29.50;;;;;8.50;47.08;98163.84;6149192;28;97089;-57
2020/12/08 01:31:33;;;;;;;;;32.60;30.00;;;;;8.42;47.10;98172.19;6187520;28;97343;-57
2020/12/08 01:34:41;;;;;;;;;35.50;30.00;;;;;8.38;47.39;98171.00;6176048;28;97687;-57
2020/12/08 01:37:45;;;;;;;;;35.00;30.00;;;;;8.40;47.13;98161.69;6191163;28;96988;-57
2020/12/08 01:40:54;;;;;;;;;30.80;27.00;;;;;8.41;47.34;98168.69;6166496;28;96623;-57
2020/12/08 01:43:58;;;;;;;;;33.00;29.50;;;;;8.32;47.22;98167.34;6166908;28;97396;-57
2020/12/08 01:47:03;;;;;;;;;31.00;28.40;;;;;8.44;47.22;98176.31;6175235;28;97223;-57
2020/12/08 01:50:05;;;;;;;;;29.80;28.40;;;;;8.38;47.14;98169.16;6174679;28;96608;-57
2020/12/08 01:53:10;;;;;;;;;33.40;27.40;;;;;8.32;47.99;98167.34;6185350;28;97654;-57
2020/12/08 01:56:13;;;;;;;;;31.00;28.40;;;;;8.22;47.75;98167.03;6156846;28;96587;-57
2020/12/08 01:59:15;;;;;;;;;29.50;27.00;;;;;8.08;47.69;98173.59;6172868;28;97143;-57
2020/12/08 02:02:29;;;;;;;;;26.75;24.75;;;;;8.17;47.62;98172.25;6191947;28;97463;-57
2020/12/08 02:05:33;;;;;;;;;29.80;25.20;;;;;8.14;47.64;98168.16;6188716;28;97197;-57
2020/12/08 02:08:37;;;;;;;;;29.60;28.00;;;;;8.19;47.38;98168.31;6169472;28;98551;-57
2020/12/08 02:11:44;;;;;;;;;30.60;26.60;;;;;8.14;47.95;98168.16;6179664;28;97503;-57
2020/12/08 02:14:47;;;;;;;;;35.40;28.40;;;;;8.22;47.89;98161.66;6165165;28;96696;-57
2020/12/08 02:17:49;;;;;;;;;29.50;27.50;;;;;8.29;47.57;98162.41;6173404;28;97863;-57
2020/12/08 02:20:59;;;;;;;;;32.80;29.80;;;;;8.24;47.91;98152.34;6159781;28;97317;-57
2020/12/08 02:24:06;;;;;;;;;29.60;26.40;;;;;8.23;47.66;98158.75;6154567;28;98959;-57
2020/12/08 02:27:08;;;;;;;;;27.40;24.80;;;;;8.25;47.45;98162.06;6174779;28;98808;-57
2020/12/08 02:30:10;;;;;;;;;28.00;24.00;;;;;8.12;47.65;98161.34;6175458;28;97409;-57
2020/12/08 02:33:12;;;;;;;;;29.00;26.00;;;;;8.03;47.26;98176.94;6168823;28;96613;-57
2020/12/08 02:36:14;;;;;;;;;28.60;25.00;;;;;7.90;47.52;98169.03;6164226;28;97536;-57
2020/12/08 02:39:15;;;;;;;;;31.60;26.20;;;;;8.09;47.47;98185.97;6145088;28;98404;-57
2020/12/08 02:42:17;;;;;;;;;31.40;28.40;;;;;8.13;47.39;98184.47;6170647;28;98955;-57
2020/12/08 02:45:19;;;;;;;;;30.60;27.00;;;;;8.10;47.39;98185.75;6169637;28;97224;-57
2020/12/08 02:48:21;;;;;;;;;31.00;27.00;;;;;8.15;46.92;98185.91;6167910;28;97426;-57
2020/12/08 02:51:33;;;;;;;;;24.40;22.00;;;;;7.91;46.89;98137.66;6184674;28;97670;-57
2020/12/08 02:54:39;;;;;;;;;29.80;27.20;;;;;8.28;47.13;98183.06;6191229;28;98891;-57
2020/12/08 02:57:41;;;;;;;;;27.50;25.00;;;;;8.24;47.23;98176.50;6151732;28;98479;-57
2020/12/08 03:00:43;;;;;;;;;27.00;25.00;;;;;7.98;46.87;98146.44;6193983;28;98512;-57
2020/12/08 03:03:45;;;;;;;;;30.00;26.00;;;;;8.24;46.73;98191.81;6184799;28;97171;-57
2020/12/08 03:06:47;;;;;;;;;27.00;24.60;;;;;8.11;47.09;98183.91;6173786;28;97406;-57
2020/12/08 03:09:49;;;;;;;;;28.00;25.00;;;;;8.23;46.93;98190.97;6176590;28;99758;-57
2020/12/08 03:12:52;;;;;;;;;26.75;24.00;;;;;8.32;46.69;98188.84;6170453;28;97653;-57
2020/12/08 03:15:53;;;;;;;;;29.00;25.00;;;;;8.28;46.35;98190.31;6162646;28;97197;-57
2020/12/08 03:18:55;;;;;;;;;25.40;23.00;;;;;8.08;46.56;98195.06;6180263;28;98608;-57
2020/12/08 03:21:58;;;;;;;;;29.40;27.00;;;;;8.14;47.34;98186.13;6195506;28;98490;-57
2020/12/08 03:25:13;;;;;;;;;26.75;24.50;;;;;8.07;46.83;98194.25;6173222;28;96921;-57
2020/12/08 03:28:15;;;;;;;;;28.00;24.00;;;;;7.99;47.10;98197.22;6186180;28;97935;-57
2020/12/08 03:31:19;;;;;;;;;28.00;25.00;;;;;8.02;47.12;98195.94;6185152;28;98488;-57
2020/12/08 03:34:21;;;;;;;;;20.25;19.75;;;;;7.98;47.41;98192.06;6169987;28;97550;-57
2020/12/08 03:37:23;;;;;;;;;26.00;23.40;;;;;8.01;47.63;98184.41;6191384;28;97620;-57
2020/12/08 03:40:29;;;;;;;;;25.00;23.00;;;;;7.99;47.10;98172.25;6158140;28;98721;-57
2020/12/08 03:43:34;;;;;;;;;24.25;22.25;;;;;7.80;47.30;98177.59;6172932;28;97463;-57
2020/12/08 03:46:36;;;;;;;;;23.00;22.00;;;;;7.75;47.65;98171.25;6178675;28;97190;-57
2020/12/08 03:49:38;;;;;;;;;31.00;25.60;;;;;7.77;47.88;98161.13;6173718;28;96527;-57
2020/12/08 03:52:42;;;;;;;;;29.00;26.50;;;;;7.58;47.95;98162.94;6175786;28;96684;-57
2020/12/08 03:55:44;;;;;;;;;23.60;21.20;;;;;7.62;48.47;98172.19;6176523;28;97495;-57
2020/12/08 03:58:46;;;;;;;;;24.20;23.00;;;;;7.71;48.03;98178.09;6180554;28;97686;-57
2020/12/08 04:01:49;;;;;;;;;21.40;19.00;;;;;7.23;48.28;98133.09;6175109;28;97438;-57
2020/12/08 04:04:52;;;;;;;;;28.00;24.00;;;;;7.54;48.46;98185.03;6168809;28;96936;-57
2020/12/08 04:07:56;;;;;;;;;26.25;22.25;;;;;7.43;48.70;98177.72;6170613;28;97168;-57
2020/12/08 04:11:04;;;;;;;;;24.00;22.00;;;;;7.38;48.45;98191.75;6176470;28;97032;-57
2020/12/08 04:14:05;;;;;;;;;27.00;25.20;;;;;7.23;48.70;98188.59;6178781;28;97854;-57
2020/12/08 04:17:07;;;;;;;;;31.50;28.00;;;;;7.29;48.84;98198.44;6172407;28;97538;-57
2020/12/08 04:20:08;;;;;;;;;25.20;22.00;;;;;7.36;48.32;98210.78;6168921;28;97071;-57
2020/12/08 04:23:11;;;;;;;;;24.00;21.00;;;;;7.38;48.20;98213.22;6175511;28;97091;-57
2020/12/08 04:26:13;;;;;;;;;24.00;21.40;;;;;7.41;48.26;98204.75;6177636;28;98641;-57
2020/12/08 04:29:18;;;;;;;;;25.00;22.00;;;;;7.32;48.21;98211.44;6187403;28;97121;-57
2020/12/08 04:32:24;;;;;;;;;24.80;22.00;;;;;7.36;48.19;98210.78;6169018;28;98142;-57
2020/12/08 04:35:27;;;;;;;;;29.00;24.00;;;;;7.47;47.93;98214.63;6173962;28;98626;-57
2020/12/08 04:38:28;;;;;;;;;29.00;25.40;;;;;7.43;47.66;98204.56;6166230;28;96420;-57
2020/12/08 04:41:43;;;;;;;;;26.75;23.75;;;;;7.42;47.82;98214.44;6179119;28;97909;-57
2020/12/08 04:44:46;;;;;;;;;25.40;22.00;;;;;7.47;47.88;98211.94;6170072;28;97427;-57
2020/12/08 04:47:48;;;;;;;;;28.60;23.00;;;;;7.13;48.46;98209.72;6171395;28;97067;-57
2020/12/08 04:50:50;;;;;;;;;26.40;23.40;;;;;7.12;48.16;98174.03;6178182;28;96535;-57
2020/12/08 04:53:53;;;;;;;;;26.60;22.60;;;;;7.06;48.48;98160.69;6177489;28;98600;-57
2020/12/08 04:56:54;;;;;;;;;23.75;22.00;;;;;7.28;48.33;98216.38;6169742;28;98100;-57
2020/12/08 05:00:11;;;;;;;;;23.80;20.80;;;;;7.29;48.27;98215.34;6175441;28;97339;-57
2020/12/08 05:03:12;;;;;;;;;25.50;21.50;;;;;7.43;48.07;98231.38;6174737;28;98283;-57
2020/12/08 05:06:15;;;;;;;;;23.20;21.00;;;;;7.37;47.95;98216.97;6177971;28;98566;-57
2020/12/08 05:09:16;;;;;;;;;21.00;19.80;;;;;7.45;47.84;98219.38;6171074;28;97483;-57
2020/12/08 05:12:23;;;;;;;;;20.25;19.00;;;;;7.24;47.65;98158.88;6169296;28;98883;-57
2020/12/08 05:15:24;;;;;;;;;25.00;21.00;;;;;7.48;47.69;98210.09;6173717;28;96665;-57
2020/12/08 05:18:26;;;;;;;;;23.00;21.00;;;;;7.56;47.46;98221.34;6177047;28;98407;-57
2020/12/08 05:21:28;;;;;;;;;25.40;22.40;;;;;7.57;47.13;98223.00;6173504;28;97524;-57
2020/12/08 05:24:32;;;;;;;;;22.60;21.60;;;;;7.52;47.47;98217.47;6169863;28;96501;-57
2020/12/08 05:27:34;;;;;;;;;22.80;19.80;;;;;7.56;47.16;98220.53;6171264;28;98689;-57
2020/12/08 05:30:43;;;;;;;;;22.50;20.50;;;;;7.54;46.99;98218.06;6178038;28;97627;-57
2020/12/08 05:33:47;;;;;;;;;24.60;21.60;;;;;7.53;47.46;98227.13;6170578;28;97718;-57
2020/12/08 05:36:51;;;;;;;;;22.60;22.00;;;;;7.48;47.66;98226.97;6177674;28;96569;-57
2020/12/08 05:39:52;;;;;;;;;23.00;20.40;;;;;7.49;47.92;98225.13;6176771;28;96644;-57
2020/12/08 05:42:54;;;;;;;;;26.00;22.60;;;;;7.57;47.36;98232.91;6169158;28;97022;-57
2020/12/08 05:45:58;;;;;;;;;25.00;22.50;;;;;7.64;47.29;98231.81;6169156;28;97617;-57
2020/12/08 05:49:00;;;;;;;;;26.80;24.80;;;;;7.65;47.37;98233.44;6175589;28;97729;-57
2020/12/08 05:52:02;;;;;;;;;25.00;22.60;;;;;7.70;46.79;98240.84;6175023;28;97148;-57
2020/12/08 05:55:18;;;;;;;;;23.00;22.75;;;;;7.62;47.03;98251.84;6168734;28;96933;-57
2020/12/08 05:58:19;;;;;;;;;21.80;20.80;;;;;7.62;46.89;98260.72;6165501;28;98637;-57
2020/12/08 06:01:21;;;;;;;;;26.00;23.00;;;;;7.48;46.96;98256.47;6173675;28;97492;-57
2020/12/08 06:04:38;;;;;;;;;24.60;22.00;;;;;7.65;46.78;98267.50;6157990;28;98443;-57
2020/12/08 06:07:40;;;;;;;;;24.40;21.00;;;;;7.66;46.66;98266.47;6160690;28;97195;-57
2020/12/08 06:10:52;;;;;;;;;23.50;21.00;;;;;7.73;46.71;98267.22;6170607;28;97453;-57
2020/12/08 06:13:54;;;;;;;;;24.60;21.00;;;;;7.68;46.63;98269.75;6168689;28;97286;-57
2020/12/08 06:17:04;;;;;;;;;22.75;20.75;;;;;7.82;46.82;98261.38;6160574;28;96723;-57
2020/12/08 06:20:05;;;;;;;;;26.40;22.40;;;;;7.82;46.69;98264.03;6158701;28;98044;-57
2020/12/08 06:23:07;;;;;;;;;26.00;23.67;;;;;7.72;46.53;98273.66;6156033;28;97479;-57
2020/12/08 06:26:08;;;;;;;;;26.00;23.00;;;;;7.78;46.87;98280.81;6172029;28;98535;-57
2020/12/08 06:29:10;;;;;;;;;22.00;20.40;;;;;7.76;46.80;98275.69;6170987;28;96659;-57
2020/12/08 06:32:21;;;;;;;;;23.00;20.40;;;;;7.67;47.64;98265.44;6147062;28;97155;-57
2020/12/08 06:35:23;;;;;;;;;26.00;24.00;;;;;7.65;46.90;98254.91;6172197;28;97132;-57
2020/12/08 06:38:24;;;;;;;;;26.00;24.25;;;;;7.62;47.25;98259.91;6176034;28;96800;-57
2020/12/08 06:41:30;;;;;;;;;24.60;22.00;;;;;7.53;47.46;98255.81;6142059;28;97360;-57
2020/12/08 06:44:33;;;;;;;;;27.80;24.40;;;;;7.45;48.14;98248.88;6164769;28;97491;-57
2020/12/08 06:47:35;;;;;;;;;25.80;22.60;;;;;7.48;47.59;98269.09;6157319;28;97225;-57
2020/12/08 06:50:36;;;;;;;;;22.00;20.00;;;;;7.58;47.27;98277.44;6174363;28;98538;-57
2020/12/08 06:53:37;;;;;;;;;26.40;22.00;;;;;7.57;47.51;98278.50;6172426;28;97498;-57
2020/12/08 06:56:39;;;;;;;;;24.80;20.00;;;;;7.62;47.29;98279.50;6157166;28;97425;-57
2020/12/08 06:59:41;;;;;;;;;25.25;22.50;;;;;7.72;47.61;98287.06;6152143;28;98605;-57
2020/12/08 07:02:51;;;;;;;;;25.60;23.60;;;;;7.78;47.13;98294.22;6177149;28;97243;-57
2020/12/08 07:05:52;;;;;;;;;25.20;21.00;;;;;7.86;47.40;98306.56;6168115;28;97257;-57
2020/12/08 07:08:55;;;;;;;;;23.60;21.00;;;;;7.89;47.03;98300.75;6174867;28;97202;-57
2020/12/08 07:12:03;;;;;;;;;27.75;25.25;;;;;7.96;47.01;98291.63;6164768;28;97410;-57
2020/12/08 07:15:05;;;;;;;;;26.40;24.40;;;;;7.96;46.83;98293.47;6167642;28;97024;-58
2020/12/08 07:18:08;;;;;;;;;26.00;24.00;;;;;8.04;46.86;98296.69;6167144;28;98384;-56
2020/12/08 07:21:13;;;;;;;;;28.00;24.00;;;;;7.91;46.55;98269.16;6173976;28;98515;-56
2020/12/08 07:24:24;;;;;;;;;25.60;23.00;;;;;7.71;46.67;98258.59;6161938;28;97231;-56
2020/12/08 07:27:28;;;;;;;;;25.00;24.00;;;;;7.99;46.56;98299.22;6171035;28;96941;-57
2020/12/08 07:30:31;;;;;;;;;27.00;23.80;;;;;7.81;47.04;98293.81;6174676;28;97636;-58
2020/12/08 07:33:32;;;;;;;;;27.60;24.80;;;;;7.94;47.15;98304.44;6171758;28;97008;-58
2020/12/08 07:36:37;;;;;;;;;29.50;26.00;;;;;7.95;46.83;98297.19;6166828;28;97815;-57
2020/12/08 07:39:38;;;;;;;;;25.00;21.75;;;;;7.76;47.13;98289.09;6168496;28;97467;-57
2020/12/08 07:42:50;;;;;;;;;31.40;27.40;;;;;7.97;47.60;98301.28;6168516;28;97090;-57
2020/12/08 07:45:51;;;;;;;;;24.00;21.50;;;;;8.04;46.91;98296.69;6165206;28;97423;-57
2020/12/08 07:49:10;;;;;;;;;27.00;24.00;;;;;8.00;46.98;98281.25;6166842;28;97466;-57
2020/12/08 07:52:15;;;;;;;;;26.00;24.00;;;;;8.02;46.99;98293.41;6166719;28;97170;-57
2020/12/08 07:55:18;;;;;;;;;29.00;25.00;;;;;7.97;47.00;98298.59;6173244;28;96691;-56
2020/12/08 07:58:19;;;;;;;;;32.00;27.40;;;;;8.00;46.87;98292.00;6178690;28;97369;-57
2020/12/08 08:01:21;;;;;;;;;28.00;25.00;;;;;7.84;47.29;98304.91;6174088;28;97079;-56
2020/12/08 08:04:22;;;;;;;;;28.00;27.00;;;;;8.03;48.33;98302.28;6184387;28;97379;-57
2020/12/08 08:07:24;;;;;;;;;27.60;22.60;;;;;8.02;46.92;98312.19;6174223;28;97346;-56
2020/12/08 08:10:25;;;;;;;;;26.20;23.00;;;;;8.12;47.26;98323.25;6166376;28;97245;-57
2020/12/08 08:13:27;;;;;;;;;33.00;24.50;;;;;8.13;46.75;98316.84;6162681;28;96769;-57
2020/12/08 08:16:29;;;;;;;;;27.80;22.00;;;;;8.10;46.70;98301.19;6179139;28;97987;-57
2020/12/08 08:19:31;;;;;;;;;27.20;23.00;;;;;8.23;46.68;98319.88;6176019;28;97451;-57
2020/12/08 08:22:33;;;;;;;;;26.00;23.50;;;;;8.09;46.74;98312.16;6170073;28;98572;-57
2020/12/08 08:25:35;;;;;;;;;26.60;25.40;;;;;8.22;46.55;98283.31;6173240;28;96558;-57
2020/12/08 08:28:36;;;;;;;;;32.00;26.25;;;;;8.24;46.30;98305.41;6178284;28;97658;-57
2020/12/08 08:31:38;;;;;;;;;25.33;24.33;;;;;8.48;46.14;98313.66;6175892;28;97663;-57
2020/12/08 08:34:39;;;;;;;;;29.00;25.00;;;;;8.49;45.90;98307.25;6170050;28;96582;-58
2020/12/08 08:37:40;;;;;;;;;30.00;25.00;;;;;8.60;45.80;98317.28;6172821;28;98095;-57
2020/12/08 08:40:42;;;;;;;;;28.40;26.40;;;;;8.55;45.95;98322.50;6176793;28;98562;-58
2020/12/08 08:43:43;;;;;;;;;31.60;29.00;;;;;8.61;46.00;98332.34;6152354;28;98778;-57
2020/12/08 08:46:45;;;;;;;;;28.40;26.40;;;;;8.75;45.72;98341.91;6163947;28;98031;-57
2020/12/08 08:49:46;;;;;;;;;31.40;28.60;;;;;8.74;45.58;98326.00;6162574;28;97204;-57
2020/12/08 08:52:49;;;;;;;;;30.50;28.50;;;;;8.64;45.86;98327.34;6167242;28;97419;-57
2020/12/08 08:55:50;;;;;;;;;27.80;24.60;;;;;8.76;45.55;98329.28;6168789;28;98523;-57
2020/12/08 08:58:52;;;;;;;;;28.40;24.40;;;;;8.65;45.40;98334.34;6177160;28;97083;-57
2020/12/08 09:01:54;;;;;;;;;26.80;25.60;;;;;8.91;45.40;98345.88;6176728;28;98548;-58
2020/12/08 09:04:56;;;;;;;;;30.00;26.60;;;;;8.93;44.73;98338.41;6153826;28;97478;-57
2020/12/08 09:07:57;;;;;;;;;32.00;27.00;;;;;9.01;45.20;98346.16;6167451;28;97473;-57
2020/12/08 09:10:59;;;;;;;;;28.40;24.60;;;;;8.95;44.76;98342.50;6176216;28;98106;-57
2020/12/08 09:14:00;;;;;;;;;26.60;24.20;;;;;8.97;45.05;98344.97;6177095;28;97202;-56
2020/12/08 09:17:02;;;;;;;;;27.20;22.60;;;;;8.84;45.21;98350.50;6167802;28;97558;-56
2020/12/08 09:20:04;;;;;;;;;32.40;27.00;;;;;8.96;45.29;98346.00;6167062;28;97506;-56
2020/12/08 09:23:06;;;;;;;;;30.40;28.40;;;;;9.05;45.22;98344.66;6176454;28;97146;-57
2020/12/08 09:26:07;;;;;;;;;24.00;20.25;;;;;9.10;45.27;98340.25;6176305;28;97029;-55
2020/12/08 09:29:09;;;;;;;;;30.75;27.25;;;;;9.19;44.99;98331.91;6170353;28;98477;-56
2020/12/08 09:32:11;;;;;;;;;34.60;28.00;;;;;9.35;45.46;98344.72;6169007;28;97238;-56
2020/12/08 09:35:13;;;;;;;;;29.00;28.00;;;;;9.52;44.21;98335.78;6174685;28;96923;-56
2020/12/08 09:38:15;;;;;;;;;30.60;27.40;;;;;9.32;44.17;98347.84;6176877;28;96816;-56
2020/12/08 09:41:16;;;;;;;;;27.40;25.80;;;;;9.53;44.08;98337.41;6172449;28;97395;-58
2020/12/08 09:44:18;;;;;;;;;27.00;25.00;;;;;9.56;44.15;98328.91;6167073;28;96694;-56
2020/12/08 09:47:19;;;;;;;;;29.25;28.00;;;;;9.59;44.27;98327.59;6174333;28;97150;-57
2020/12/08 09:50:21;;;;;;;;;27.50;26.50;;;;;9.70;44.37;98336.78;6162473;28;96817;-57
2020/12/08 09:53:22;;;;;;;;;29.00;27.00;;;;;9.83;43.51;98344.66;6169491;28;97590;-57
2020/12/08 09:56:25;;;;;;;;;30.00;27.00;;;;;9.95;43.57;98348.22;6191591;28;97316;-57
2020/12/08 09:59:26;;;;;;;;;29.20;28.00;;;;;10.00;43.40;98351.03;6162816;28;98457;-57
2020/12/08 10:02:28;;;;;;;;;29.00;26.00;;;;;10.13;43.46;98345.41;6171844;28;96817;-58
2020/12/08 10:05:29;;;;;;;;;28.00;25.20;;;;;10.24;43.37;98354.59;6172118;28;97114;-57
2020/12/08 10:08:31;;;;;;;;;31.20;27.60;;;;;10.33;43.21;98353.22;6167073;28;98925;-57
2020/12/08 10:11:32;;;;;;;;;28.00;25.60;;;;;10.41;43.22;98347.47;6170328;28;97525;-57
2020/12/08 10:14:35;;;;;;;;;27.00;24.00;;;;;10.29;42.80;98327.78;6175814;28;98515;-57
2020/12/08 10:17:36;;;;;;;;;27.60;24.20;;;;;10.50;42.81;98347.97;6172869;28;96736;-57
2020/12/08 10:20:38;;;;;;;;;32.00;28.40;;;;;10.57;42.28;98343.25;6167513;28;98518;-56
2020/12/08 10:23:40;;;;;;;;;34.00;30.00;;;;;10.53;42.43;98329.44;6168630;28;98010;-57
2020/12/08 10:26:41;;;;;;;;;32.00;27.60;;;;;10.69;42.77;98331.44;6176196;28;96701;-57
2020/12/08 10:29:43;;;;;;;;;29.80;28.00;;;;;10.86;42.05;98332.34;6172777;28;97275;-57
2020/12/08 10:32:44;;;;;;;;;32.60;28.60;;;;;10.95;42.14;98330.09;6166359;28;96612;-57
2020/12/08 10:35:46;;;;;;;;;32.40;28.40;;;;;11.12;41.74;98346.38;6166387;28;97611;-57
2020/12/08 10:38:47;;;;;;;;;29.00;26.40;;;;;11.03;41.03;98353.19;6178136;28;98564;-57
2020/12/08 10:41:49;;;;;;;;;27.00;24.00;;;;;10.74;41.00;98312.66;6168568;28;99607;-57
2020/12/08 10:44:50;;;;;;;;;29.40;25.20;;;;;10.72;41.50;98324.72;6175402;28;96713;-57
2020/12/08 10:47:52;;;;;;;;;29.50;26.50;;;;;10.73;41.33;98321.81;6174589;28;97821;-58
2020/12/08 10:50:53;;;;;;;;;29.60;28.20;;;;;11.03;41.52;98347.78;6166979;28;97653;-57
2020/12/08 10:53:55;;;;;;;;;29.00;26.00;;;;;11.08;41.39;98332.53;6167621;28;99132;-57
2020/12/08 10:56:57;;;;;;;;;30.00;27.40;;;;;11.42;40.48;98338.88;6159404;28;97440;-57
2020/12/08 10:59:58;;;;;;;;;32.50;28.00;;;;;11.59;40.03;98350.53;6159825;28;96508;-57
2020/12/08 11:03:01;;;;;;;;;29.60;26.00;;;;;12.06;39.99;98353.88;6173325;28;97485;-57
2020/12/08 11:06:02;;;;;;;;;32.20;29.20;;;;;12.94;39.12;98339.56;6175472;28;98167;-58
2020/12/08 11:09:04;;;;;;;;;30.40;28.00;;;;;13.88;37.03;98350.13;6166920;28;97199;-58
2020/12/08 11:12:06;;;;;;;;;32.00;30.00;;;;;14.75;35.33;98341.69;6176532;28;96569;-57
2020/12/08 11:15:07;;;;;;;;;32.20;28.20;;;;;15.56;33.58;98334.75;6154867;28;98373;-58
2020/12/08 11:18:09;;;;;;;;;29.50;26.00;;;;;16.19;33.11;98342.75;6167508;28;98003;-58
2020/12/08 11:21:11;;;;;;;;;33.00;30.00;;;;;16.81;31.31;98346.00;6157776;28;96721;-57
2020/12/08 11:24:12;;;;;;;;;32.80;27.60;;;;;17.13;31.09;98363.94;6163935;28;96747;-57
2020/12/08 11:27:16;;;;;;;;;34.00;28.80;;;;;16.81;31.64;98367.00;6171931;28;98464;-57
2020/12/08 11:30:17;;;;;;;;;31.20;28.00;;;;;16.37;31.85;98353.91;6166076;28;97980;-58
2020/12/08 11:33:18;;;;;;;;;32.40;29.00;;;;;16.27;32.65;98358.56;6172164;28;98040;-58
2020/12/08 11:36:20;;;;;;;;;28.60;27.00;;;;;16.58;33.08;98351.19;6165792;28;98577;-58
2020/12/08 11:39:22;;;;;;;;;27.40;27.00;;;;;16.96;33.81;98337.00;6154328;28;98439;-58
2020/12/08 11:42:23;;;;;;;;;32.00;28.00;;;;;17.51;31.26;98337.91;6170051;28;97511;-58
2020/12/08 11:45:25;;;;;;;;;34.00;30.20;;;;;17.42;30.55;98345.03;6174711;28;98078;-58
2020/12/08 11:48:26;;;;;;;;;33.40;30.00;;;;;17.71;29.92;98348.72;6178504;28;97565;-58
2020/12/08 11:51:29;;;;;;;;;33.00;29.40;;;;;18.11;30.11;98336.75;6162733;28;96588;-58
2020/12/08 11:54:31;;;;;;;;;33.60;30.00;;;;;18.50;28.80;98350.38;6178170;28;97079;-58
2020/12/08 11:57:34;;;;;;;;;32.50;27.50;;;;;18.79;28.51;98323.94;6175541;28;97462;-58
2020/12/08 12:00:35;;;;;;;;;35.60;29.00;;;;;19.20;27.77;98324.31;6169943;28;97009;-58
2020/12/08 12:03:37;;;;;;;;;27.60;24.60;;;;;19.53;27.23;98340.88;6186323;28;97446;-58
2020/12/08 12:06:39;;;;;;;;;32.00;29.00;;;;;19.77;27.31;98331.53;6170035;28;97171;-56
2020/12/08 12:09:41;;;;;;;;;34.00;30.00;;;;;20.03;26.82;98318.31;6155815;28;97327;-56
2020/12/08 12:12:42;;;;;;;;;36.80;31.80;;;;;20.28;26.16;98328.03;6173742;28;97499;-56
2020/12/08 12:15:44;;;;;;;;;33.00;30.00;;;;;20.33;26.09;98352.59;6174714;28;98416;-55
2020/12/08 12:18:46;;;;;;;;;34.60;31.60;;;;;20.05;26.34;98298.84;6168998;28;96800;-57
2020/12/08 12:21:48;;;;;;;;;30.00;27.00;;;;;20.44;26.06;98339.56;6171220;28;97168;-57
2020/12/08 12:24:49;;;;;;;;;36.00;30.20;;;;;20.06;25.96;98341.50;6177786;28;97295;-58
2020/12/08 12:27:51;;;;;;;;;37.75;30.50;;;;;19.95;26.55;98324.44;6165467;28;97105;-57
2020/12/08 12:30:53;;;;;;;;;31.00;27.00;;;;;19.33;27.24;98309.13;6178223;28;97015;-58
2020/12/08 12:33:54;;;;;;;;;39.00;32.00;;;;;19.07;27.86;98315.97;6177993;28;98464;-57
2020/12/08 12:36:57;;;;;;;;;32.40;29.00;;;;;18.97;27.79;98298.59;6170087;28;99106;-58
2020/12/08 12:39:59;;;;;;;;;33.00;30.00;;;;;18.83;27.38;98319.50;6169100;28;97089;-58
2020/12/08 12:43:00;;;;;;;;;32.80;29.40;;;;;18.28;28.48;98318.06;6177445;28;96631;-58
2020/12/08 12:46:02;;;;;;;;;34.75;29.75;;;;;18.00;28.40;98313.38;6177771;28;98311;-58
2020/12/08 12:49:03;;;;;;;;;31.40;28.40;;;;;17.72;30.11;98317.66;6171150;28;98599;-58
2020/12/08 12:52:05;;;;;;;;;30.67;28.67;;;;;17.52;29.98;98313.09;6168988;28;97243;-58
2020/12/08 12:55:06;;;;;;;;;34.00;31.00;;;;;17.26;30.07;98312.41;6170862;28;97448;-58
2020/12/08 12:58:08;;;;;;;;;35.00;30.50;;;;;16.93;30.23;98299.44;6160662;28;96567;-58
2020/12/08 13:01:09;;;;;;;;;32.80;29.00;;;;;16.66;30.61;98307.16;6154566;28;97129;-58
2020/12/08 13:04:11;;;;;;;;;34.00;30.00;;;;;16.16;31.18;98286.19;6162534;28;98710;-58
2020/12/08 13:07:17;;;;;;;;;36.00;30.00;;;;;16.30;31.27;98319.91;6160590;28;97247;-58
2020/12/08 13:10:18;;;;;;;;;39.00;32.80;;;;;15.62;31.94;98291.31;6162170;28;96952;-58
2020/12/08 13:13:21;;;;;;;;;33.60;30.40;;;;;15.57;32.12;98313.84;6161223;28;97472;-58
2020/12/08 13:16:22;;;;;;;;;33.00;31.00;;;;;15.43;32.82;98318.13;6160372;28;98545;-58
2020/12/08 13:19:24;;;;;;;;;36.40;31.00;;;;;15.17;33.11;98312.59;6144076;28;98071;-58
2020/12/08 13:22:41;;;;;;;;;36.40;32.00;;;;;14.76;33.54;98315.38;6162575;28;97657;-58
2020/12/08 13:25:43;;;;;;;;;36.40;32.00;;;;;14.78;33.59;98315.91;6161809;28;97747;-58
2020/12/08 13:28:44;;;;;;;;;36.00;31.00;;;;;14.70;33.77;98325.38;6161792;28;97450;-58
2020/12/08 13:31:47;;;;;;;;;34.60;30.00;;;;;14.45;33.91;98308.94;6151576;28;97359;-58
2020/12/08 13:34:48;;;;;;;;;39.25;32.50;;;;;14.12;34.58;98299.16;6158935;28;97093;-58
2020/12/08 13:37:50;;;;;;;;;39.25;32.00;;;;;14.22;34.65;98337.19;6160512;28;97503;-58
2020/12/08 13:40:52;;;;;;;;;35.00;29.60;;;;;14.01;34.79;98341.63;6162424;28;97659;-58
2020/12/08 13:43:54;;;;;;;;;35.00;31.00;;;;;13.87;35.02;98348.53;6161094;28;97014;-58
2020/12/08 13:46:57;;;;;;;;;34.00;30.00;;;;;13.79;35.22;98348.97;6161450;28;97879;-58
2020/12/08 13:49:58;;;;;;;;;32.00;30.00;;;;;13.56;35.39;98352.78;6160933;28;97492;-58
2020/12/08 13:53:00;;;;;;;;;34.80;30.00;;;;;13.42;35.83;98357.78;6160874;28;96874;-58
2020/12/08 13:56:02;;;;;;;;;34.60;30.60;;;;;13.28;36.12;98361.13;6161644;28;98558;-58
2020/12/08 13:59:03;;;;;;;;;34.20;30.20;;;;;13.15;36.15;98356.88;6145860;28;96595;-58
2020/12/08 14:02:06;;;;;;;;;36.00;31.40;;;;;13.07;36.05;98359.19;6161915;28;97162;-58
2020/12/08 14:05:07;;;;;;;;;33.20;30.00;;;;;12.85;36.42;98361.88;6161176;28;97186;-58